createdAt,value
2023-04-13T18:11:28.726Z,2.38
2023-04-13T18:13:55.849Z,1.73
2023-04-13T18:16:23.060Z,2.97
2023-04-13T18:18:51.294Z,3.00
2023-04-13T18:21:19.457Z,3.53
2023-04-13T18:23:46.998Z,1.80
2023-04-13T18:26:14.841Z,1.58
2023-04-13T18:28:42.024Z,2.03
2023-04-13T18:31:09.183Z,1.70
2023-04-13T18:33:36.291Z,2.35
2023-04-13T18:36:03.404Z,2.47
2023-04-13T18:38:30.731Z,2.88
2023-04-13T18:40:57.784Z,2.90
2023-04-13T18:54:12.733Z,1.92
2023-04-13T18:56:39.789Z,1.90
2023-04-13T18:59:06.839Z,3.17
2023-04-13T19:01:33.965Z,2.15
2023-04-13T19:04:02.629Z,2.60
2023-04-13T19:06:30.746Z,1.38
2023-04-13T19:08:57.817Z,1.75
2023-04-13T19:11:27.597Z,2.78
2023-04-13T19:13:54.832Z,2.47
2023-04-13T19:16:22.162Z,1.65
2023-04-13T19:18:49.298Z,1.02
2023-04-13T19:21:18.324Z,1.80
2023-04-13T19:23:45.400Z,1.42
2023-04-13T19:26:12.469Z,1.67
2023-04-13T19:28:39.536Z,2.50
2023-04-13T19:31:06.628Z,2.88
2023-04-13T19:33:34.787Z,2.63
2023-04-13T19:36:04.731Z,2.65
2023-04-13T19:38:31.819Z,2.80
2023-04-13T19:40:58.862Z,4.07
2023-04-13T19:43:28.020Z,2.50
2023-04-13T19:45:55.734Z,2.03
2023-04-13T19:48:22.818Z,1.70
2023-04-13T19:50:49.892Z,2.43
2023-04-13T19:53:16.996Z,1.88
2023-04-13T19:55:44.077Z,2.72
2023-04-13T19:58:11.230Z,3.67
2023-04-13T20:00:38.444Z,3.07
2023-04-13T20:03:05.612Z,1.95
2023-04-13T20:05:32.987Z,3.80
2023-04-13T20:08:00.436Z,4.22
2023-04-13T20:10:27.885Z,4.60
2023-04-13T20:12:55.141Z,3.35
2023-04-13T20:15:22.197Z,3.90
2023-04-13T20:17:51.066Z,2.75
2023-04-13T20:20:21.803Z,3.40
2023-04-13T20:22:50.481Z,6.07
2023-04-13T20:25:17.665Z,20.02
2023-04-13T20:27:45.573Z,20.55
2023-04-13T20:30:12.812Z,5.40
2023-04-13T20:32:40.173Z,3.78
2023-04-13T20:35:07.934Z,2.97
2023-04-13T20:37:35.202Z,3.53
2023-04-13T20:40:02.867Z,4.35
2023-04-13T20:42:30.552Z,3.58
2023-04-13T20:44:58.344Z,2.90
2023-04-13T20:47:28.574Z,3.10
2023-04-13T20:49:57.452Z,3.30
2023-04-13T20:52:25.742Z,3.75
2023-04-13T20:54:53.282Z,2.72
2023-04-13T20:57:20.413Z,3.15
2023-04-13T20:59:47.819Z,2.72
2023-04-13T21:02:15.773Z,3.80
2023-04-13T21:04:42.907Z,2.63
2023-04-13T21:07:11.514Z,2.50
2023-04-13T21:09:38.649Z,3.08
2023-04-13T21:12:05.761Z,3.77
2023-04-13T21:14:33.308Z,3.08
2023-04-13T21:17:00.440Z,3.13
2023-04-13T21:19:28.079Z,2.65
2023-04-13T21:21:57.297Z,2.93
2023-04-13T21:24:24.465Z,3.08
2023-04-13T21:26:51.618Z,4.32
2023-04-13T21:29:19.912Z,3.35
2023-04-13T21:31:47.784Z,3.92
2023-04-13T21:34:14.897Z,5.20
2023-04-13T21:39:14.274Z,5.00
2023-04-13T21:41:41.581Z,5.32
2023-04-13T21:44:19.157Z,6.93
2023-04-13T21:46:55.955Z,22.48
2023-04-13T21:49:23.070Z,12.48
2023-04-13T21:51:50.127Z,5.68
2023-04-13T21:54:17.196Z,4.05
2023-04-13T21:56:44.338Z,3.60
2023-04-13T21:59:11.382Z,4.32
2023-04-13T22:01:38.444Z,3.53
2023-04-13T22:04:05.735Z,3.70
2023-04-13T22:06:32.898Z,3.90
2023-04-13T22:09:00.158Z,4.30
2023-04-13T22:11:27.350Z,3.97
2023-04-13T22:13:54.419Z,3.92
2023-04-13T22:16:21.526Z,3.72
2023-04-13T22:18:48.640Z,4.43
2023-04-13T22:21:15.780Z,5.72
2023-04-13T22:23:42.837Z,4.00
2023-04-13T22:26:09.902Z,5.22
2023-04-13T22:28:37.035Z,4.87
2023-04-13T22:31:07.913Z,4.85
2023-04-13T22:33:38.034Z,5.50
2023-04-13T22:36:09.119Z,4.85
2023-04-13T22:38:36.233Z,4.63
2023-04-13T22:41:06.636Z,4.40
2023-04-13T22:43:33.677Z,5.47
2023-04-13T22:46:01.028Z,5.95
2023-04-13T22:48:28.437Z,5.15
2023-04-13T22:50:55.642Z,5.32
2023-04-13T22:53:22.743Z,7.35
2023-04-13T22:55:49.862Z,8.27
2023-04-13T22:58:16.927Z,8.05
2023-04-13T23:00:43.989Z,6.68
2023-04-13T23:03:13.122Z,7.88
2023-04-13T23:05:40.475Z,7.07
2023-04-13T23:08:07.540Z,8.15
2023-04-13T23:10:34.628Z,7.63
2023-04-13T23:13:01.664Z,6.43
2023-04-13T23:15:28.775Z,7.03
2023-04-13T23:17:56.211Z,5.90
2023-04-13T23:20:23.695Z,7.63
2023-04-13T23:22:50.974Z,6.30
2023-04-13T23:25:18.107Z,6.75
2023-04-13T23:27:45.214Z,6.05
2023-04-13T23:30:12.553Z,6.47
2023-04-13T23:32:39.652Z,5.57
2023-04-13T23:35:07.032Z,5.70
2023-04-13T23:37:34.102Z,6.10
2023-04-13T23:40:01.388Z,7.72
2023-04-13T23:42:28.559Z,6.50
2023-04-13T23:44:55.648Z,6.07
2023-04-13T23:47:22.760Z,5.78
2023-04-13T23:49:51.765Z,6.10
2023-04-13T23:52:18.818Z,5.40
2023-04-13T23:54:45.881Z,7.20
2023-04-13T23:57:12.955Z,7.15
2023-04-13T23:59:40.041Z,5.45
